createdAt,value
2023-10-23T05:28:29.000Z,985.45
2023-10-23T06:42:08.000Z,985.62
2023-10-23T06:47:11.000Z,985.53
2023-10-23T06:52:13.000Z,985.59
2023-10-23T06:57:15.000Z,985.61
2023-10-23T07:02:09.000Z,985.49
2023-10-23T08:16:15.000Z,985.06
2023-10-23T08:21:10.000Z,985.05
2023-10-23T08:26:05.000Z,985.07
2023-10-23T08:31:00.000Z,985.05
2023-10-23T08:35:54.000Z,985.12
2023-10-23T08:40:48.000Z,984.95
2023-10-23T08:45:44.000Z,985.00
2023-10-23T08:50:40.000Z,985.03
2023-10-23T08:55:34.000Z,985.02
2023-10-23T09:00:29.000Z,985.02
2023-10-23T09:05:23.000Z,984.89
2023-10-23T09:10:17.000Z,984.83
2023-10-23T09:15:12.000Z,984.85
2023-10-23T09:20:06.000Z,984.79
2023-10-23T09:25:02.000Z,984.62
2023-10-23T09:29:53.000Z,984.63
2023-10-23T09:34:47.000Z,984.57
2023-10-23T09:39:42.000Z,984.49
2023-10-23T09:44:37.000Z,984.45
2023-10-23T09:49:32.000Z,984.43
2023-10-23T09:54:26.000Z,984.41
2023-10-23T09:59:21.000Z,984.43
2023-10-23T10:04:16.000Z,984.38
2023-10-23T10:09:11.000Z,984.37
2023-10-23T10:14:06.000Z,984.37
2023-10-23T10:19:00.000Z,984.26
2023-10-23T10:23:55.000Z,984.23
2023-10-23T10:28:48.000Z,984.08
2023-10-23T10:33:42.000Z,984.12
2023-10-23T10:38:35.000Z,984.03
2023-10-23T10:43:29.000Z,984.04
2023-10-23T10:48:24.000Z,983.92
2023-10-23T10:53:16.000Z,983.67
2023-10-23T10:58:10.000Z,983.70
2023-10-23T11:03:05.000Z,983.64
2023-10-23T11:08:00.000Z,983.58
2023-10-23T11:12:52.000Z,983.52
2023-10-23T11:17:46.000Z,983.39
2023-10-23T11:22:41.000Z,983.38
2023-10-23T11:27:36.000Z,983.32
2023-10-23T11:32:31.000Z,983.15
2023-10-23T11:37:25.000Z,983.07
2023-10-23T11:42:19.000Z,983.03
2023-10-23T11:47:14.000Z,982.91
2023-10-23T11:52:08.000Z,982.83
2023-10-23T11:57:02.000Z,982.86
2023-10-23T12:01:56.000Z,982.82
2023-10-23T12:06:50.000Z,982.66
2023-10-23T12:11:44.000Z,982.59
2023-10-23T12:16:36.000Z,982.56
2023-10-23T12:21:31.000Z,982.41
2023-10-23T12:26:25.000Z,982.44
2023-10-23T12:31:19.000Z,982.42
2023-10-23T12:36:14.000Z,982.27
2023-10-23T12:41:08.000Z,982.16
2023-10-23T12:46:01.000Z,982.07
2023-10-23T12:50:54.000Z,981.96
2023-10-23T12:55:48.000Z,981.87
2023-10-23T13:00:42.000Z,981.86
2023-10-23T13:05:36.000Z,981.82
2023-10-23T13:10:31.000Z,981.70
2023-10-23T13:15:25.000Z,981.50
2023-10-23T13:20:20.000Z,981.32
2023-10-23T13:25:13.000Z,981.21
2023-10-23T13:30:07.000Z,980.95
2023-10-23T13:35:02.000Z,980.83
2023-10-23T13:39:57.000Z,980.60
2023-10-23T13:44:51.000Z,980.40
2023-10-23T13:49:44.000Z,980.26
2023-10-23T13:54:39.000Z,980.22
2023-10-23T13:59:33.000Z,980.33
2023-10-23T14:04:28.000Z,980.20
2023-10-23T14:09:22.000Z,980.12
2023-10-23T14:14:17.000Z,980.00
2023-10-23T14:19:12.000Z,980.03
2023-10-23T14:24:06.000Z,980.08
2023-10-23T14:29:00.000Z,980.07
2023-10-23T14:33:55.000Z,979.95
2023-10-23T14:38:48.000Z,979.81
2023-10-23T14:43:43.000Z,979.68
2023-10-23T14:48:37.000Z,979.61
2023-10-23T14:53:32.000Z,979.44
2023-10-23T14:58:26.000Z,979.34
2023-10-23T15:03:21.000Z,979.35
2023-10-23T15:08:15.000Z,979.38
2023-10-23T15:13:10.000Z,979.34
2023-10-23T15:18:04.000Z,979.31
2023-10-23T15:22:58.000Z,979.31
2023-10-23T15:27:53.000Z,979.32
2023-10-23T15:32:47.000Z,979.27
2023-10-23T15:37:41.000Z,979.20
2023-10-23T15:42:36.000Z,979.25
2023-10-23T15:47:30.000Z,979.29
2023-10-23T15:52:24.000Z,979.21
2023-10-23T15:57:18.000Z,979.21
2023-10-23T16:02:12.000Z,979.26
2023-10-23T16:07:07.000Z,979.15
2023-10-23T16:12:01.000Z,979.15
2023-10-23T16:16:56.000Z,979.28
2023-10-23T16:21:50.000Z,979.05
2023-10-23T16:26:43.000Z,978.96
2023-10-23T16:31:37.000Z,979.02
2023-10-23T16:36:31.000Z,979.04
2023-10-23T16:41:26.000Z,979.12
2023-10-23T16:46:20.000Z,979.47
2023-10-23T16:51:15.000Z,979.63
2023-10-23T16:56:09.000Z,979.98
2023-10-23T17:01:04.000Z,980.09
2023-10-23T17:05:57.000Z,980.08
2023-10-23T17:10:52.000Z,980.02
2023-10-23T17:15:45.000Z,979.96
2023-10-23T17:20:40.000Z,979.81
2023-10-23T17:25:34.000Z,979.59
2023-10-23T17:30:29.000Z,979.19
2023-10-23T17:35:23.000Z,978.73
2023-10-23T17:40:17.000Z,978.47
2023-10-23T17:45:11.000Z,978.81
2023-10-23T17:50:06.000Z,978.64
2023-10-23T17:55:00.000Z,978.66
2023-10-23T17:59:55.000Z,978.54
2023-10-23T18:04:48.000Z,978.44
2023-10-23T18:09:42.000Z,978.22
2023-10-23T18:14:37.000Z,978.14
2023-10-23T18:19:30.000Z,978.10
2023-10-23T18:24:25.000Z,978.27
2023-10-23T18:29:18.000Z,978.25
2023-10-23T18:34:15.000Z,978.22
2023-10-23T18:39:06.000Z,977.88
2023-10-23T18:44:00.000Z,977.80
2023-10-23T18:48:54.000Z,977.65
2023-10-23T18:53:48.000Z,977.83
2023-10-23T18:58:40.000Z,977.75
2023-10-23T19:03:35.000Z,977.68
2023-10-23T19:08:29.000Z,977.81
2023-10-23T19:13:24.000Z,977.97
2023-10-23T19:18:18.000Z,977.77
2023-10-23T19:23:12.000Z,977.71
2023-10-23T19:28:06.000Z,977.69
2023-10-23T19:33:00.000Z,977.58
2023-10-23T19:37:55.000Z,977.41
2023-10-23T19:42:49.000Z,977.36
2023-10-23T19:47:44.000Z,977.35
2023-10-23T19:52:38.000Z,977.39
2023-10-23T19:57:34.000Z,977.41
2023-10-23T20:02:27.000Z,977.34
2023-10-23T20:07:21.000Z,977.20
2023-10-23T20:12:15.000Z,977.29
2023-10-23T20:17:09.000Z,977.19
2023-10-23T20:22:03.000Z,977.20
2023-10-23T20:26:57.000Z,977.12
2023-10-23T20:31:51.000Z,977.16
2023-10-23T20:36:44.000Z,977.17
2023-10-23T20:41:38.000Z,977.19
2023-10-23T20:46:32.000Z,977.09
2023-10-23T20:51:27.000Z,977.14
2023-10-23T20:56:21.000Z,977.11
2023-10-23T21:01:15.000Z,977.05
2023-10-23T21:06:10.000Z,977.10
2023-10-23T21:11:04.000Z,977.08
2023-10-23T21:15:59.000Z,977.05
2023-10-23T21:20:53.000Z,976.93
2023-10-23T21:25:48.000Z,976.73
2023-10-23T21:30:42.000Z,976.66
2023-10-23T21:35:35.000Z,976.87
2023-10-23T21:40:29.000Z,976.78
2023-10-23T21:45:24.000Z,976.77
2023-10-23T21:50:18.000Z,976.81
2023-10-23T21:55:12.000Z,976.88
2023-10-23T22:00:06.000Z,977.11
2023-10-23T22:05:00.000Z,976.87
2023-10-23T22:09:55.000Z,976.65
2023-10-23T22:14:47.000Z,976.65
2023-10-23T22:19:41.000Z,976.69
2023-10-23T22:24:36.000Z,976.70
2023-10-23T22:29:30.000Z,976.58
2023-10-23T22:34:24.000Z,976.61
2023-10-23T22:39:18.000Z,976.53
2023-10-23T22:44:13.000Z,976.65
2023-10-23T22:49:07.000Z,976.69
2023-10-23T22:54:02.000Z,976.77
2023-10-23T22:58:56.000Z,976.83
2023-10-23T23:03:50.000Z,976.92
2023-10-23T23:08:45.000Z,976.89
2023-10-23T23:13:39.000Z,976.80
2023-10-23T23:18:34.000Z,976.93
2023-10-23T23:23:28.000Z,976.98
2023-10-23T23:28:22.000Z,977.04
2023-10-23T23:33:15.000Z,977.04
2023-10-23T23:38:09.000Z,977.01
2023-10-23T23:43:04.000Z,976.86
2023-10-23T23:47:58.000Z,976.98
2023-10-23T23:52:53.000Z,977.00
2023-10-23T23:57:46.000Z,977.02
